createdAt,value
2017-04-05T00:00:40.027Z,5.75
2017-04-05T00:01:20.469Z,5.73
2017-04-05T00:02:00.983Z,5.71
2017-04-05T00:02:41.444Z,5.71
2017-04-05T00:03:21.925Z,5.69
2017-04-05T00:04:02.398Z,5.75
2017-04-05T00:04:42.868Z,5.79
2017-04-05T00:05:23.333Z,5.72
2017-04-05T00:06:03.805Z,5.68
2017-04-05T00:06:44.310Z,5.75
2017-04-05T00:07:24.791Z,5.73
2017-04-05T00:08:05.257Z,5.73
2017-04-05T00:08:45.745Z,5.69
2017-04-05T00:09:26.227Z,5.66
2017-04-05T00:10:06.682Z,5.66
2017-04-05T00:10:47.157Z,5.69
2017-04-05T00:11:27.625Z,5.64
2017-04-05T00:12:08.132Z,5.71
2017-04-05T00:12:48.664Z,5.61
2017-04-05T00:13:29.087Z,5.57
2017-04-05T00:14:09.586Z,5.65
2017-04-05T00:14:50.035Z,5.56
2017-04-05T00:15:30.538Z,5.66
2017-04-05T00:16:10.997Z,5.68
2017-04-05T00:16:51.523Z,5.66
2017-04-05T00:17:31.970Z,5.72
2017-04-05T00:18:12.422Z,5.66
2017-04-05T00:18:52.903Z,5.64
2017-04-05T00:19:33.484Z,5.72
2017-04-05T00:20:13.950Z,5.68
2017-04-05T00:20:54.440Z,5.71
2017-04-05T00:21:34.936Z,5.69
2017-04-05T00:22:15.416Z,5.75
2017-04-05T00:22:55.903Z,5.76
2017-04-05T00:23:36.486Z,5.79
2017-04-05T00:24:16.972Z,5.72
2017-04-05T00:24:57.467Z,5.75
2017-04-05T00:25:37.930Z,5.83
2017-04-05T00:26:18.421Z,5.87
2017-04-05T00:26:58.921Z,5.89
2017-04-05T00:27:39.396Z,5.89
2017-04-05T00:28:19.871Z,5.89
2017-04-05T00:29:00.312Z,5.99
2017-04-05T00:29:40.785Z,6.01
2017-04-05T00:30:21.273Z,6.02
2017-04-05T00:31:01.727Z,6.09
2017-04-05T00:31:42.201Z,5.97
2017-04-05T00:32:22.718Z,6.04
2017-04-05T00:33:03.190Z,6.17
2017-04-05T00:33:43.671Z,6.2
2017-04-05T00:34:24.144Z,6.19
2017-04-05T00:35:04.639Z,6.19
2017-04-05T00:35:45.112Z,6.33
2017-04-05T00:36:25.628Z,6.3
2017-04-05T00:37:06.084Z,6.3
2017-04-05T00:37:46.556Z,6.36
2017-04-05T00:38:27.036Z,6.41
2017-04-05T00:39:07.534Z,6.39
2017-04-05T00:39:47.990Z,6.49
2017-04-05T00:40:28.483Z,6.54
2017-04-05T00:41:08.954Z,6.49
2017-04-05T00:41:49.457Z,6.51
2017-04-05T00:42:29.975Z,6.48
2017-04-05T00:43:10.468Z,6.49
2017-04-05T00:43:50.965Z,6.54
2017-04-05T00:44:31.455Z,6.42
2017-04-05T00:45:11.919Z,6.46
2017-04-05T00:45:52.415Z,6.49
2017-04-05T00:46:32.876Z,6.45
2017-04-05T00:47:13.356Z,6.41
2017-04-05T00:47:53.873Z,6.39
2017-04-05T00:48:34.341Z,6.45
2017-04-05T00:49:14.818Z,6.39
2017-04-05T00:49:55.327Z,6.42
2017-04-05T00:50:35.781Z,6.35
2017-04-05T00:51:16.294Z,6.3
2017-04-05T00:51:56.814Z,6.36
2017-04-05T00:52:37.266Z,6.33
2017-04-05T00:53:17.762Z,6.31
2017-04-05T00:53:58.240Z,6.36
2017-04-05T00:54:38.726Z,6.31
2017-04-05T00:55:19.205Z,6.3
2017-04-05T00:55:59.687Z,6.38
2017-04-05T00:56:40.215Z,6.35
2017-04-05T00:57:20.654Z,6.27
2017-04-05T00:58:01.186Z,6.3
2017-04-05T00:58:41.676Z,6.3
2017-04-05T00:59:22.130Z,6.26
2017-04-05T01:00:02.610Z,6.27
2017-04-05T01:00:43.090Z,6.3
2017-04-05T01:01:23.557Z,6.3
2017-04-05T01:02:04.062Z,6.27
2017-04-05T01:02:44.523Z,6.3
2017-04-05T01:03:24.990Z,6.27
2017-04-05T01:04:05.458Z,6.28
2017-04-05T01:04:45.937Z,6.26
2017-04-05T01:05:26.440Z,6.35
2017-04-05T01:06:06.914Z,6.28
2017-04-05T01:06:47.424Z,6.38
2017-04-05T01:08:40.911Z,6.35
2017-04-05T01:09:21.125Z,6.3
2017-04-05T01:10:01.592Z,6.39
2017-04-05T01:10:42.069Z,6.26
2017-04-05T01:11:22.549Z,6.24
2017-04-05T01:12:03.038Z,6.38
2017-04-05T01:12:43.509Z,6.3
2017-04-05T01:13:23.983Z,6.28
2017-04-05T01:14:04.439Z,6.3
2017-04-05T01:14:44.911Z,6.26
2017-04-05T01:15:25.456Z,6.35
2017-04-05T01:16:05.937Z,6.33
2017-04-05T01:16:46.407Z,6.3
2017-04-05T01:17:26.894Z,6.28
2017-04-05T01:18:07.376Z,6.33
2017-04-05T01:18:47.871Z,6.3
2017-04-05T01:19:28.366Z,6.3
2017-04-05T01:20:08.872Z,6.31
2017-04-05T01:20:49.363Z,6.33
2017-04-05T01:21:29.832Z,6.36
2017-04-05T01:22:10.279Z,6.3
2017-04-05T01:22:50.786Z,6.31
2017-04-05T01:23:31.265Z,6.41
2017-04-05T01:24:11.749Z,6.31
2017-04-05T01:24:52.277Z,6.38
2017-04-05T01:25:32.747Z,6.42
2017-04-05T01:26:13.244Z,6.41
2017-04-05T01:26:53.710Z,6.45
2017-04-05T01:27:34.207Z,6.46
2017-04-05T01:28:14.708Z,6.46
2017-04-05T01:28:55.199Z,6.48
2017-04-05T01:29:35.682Z,6.48
2017-04-05T01:30:16.158Z,6.51
2017-04-05T01:30:56.641Z,6.56
2017-04-05T01:31:37.154Z,6.56
2017-04-05T01:32:17.611Z,6.54
2017-04-05T01:32:58.086Z,6.54
2017-04-05T01:33:38.596Z,6.49
2017-04-05T01:34:19.077Z,6.49
2017-04-05T01:34:59.508Z,6.49
2017-04-05T01:35:40.020Z,6.46
2017-04-05T01:36:20.499Z,6.44
2017-04-05T01:37:00.960Z,6.49
2017-04-05T01:37:41.436Z,6.46
2017-04-05T01:38:21.930Z,6.49
2017-04-05T01:39:02.425Z,6.49
2017-04-05T01:39:42.897Z,6.44
2017-04-05T01:40:23.370Z,6.46
2017-04-05T01:41:03.867Z,6.44
2017-04-05T01:41:44.329Z,6.54
2017-04-05T01:42:24.839Z,6.52
2017-04-05T01:43:05.281Z,6.49
2017-04-05T01:43:45.777Z,6.54
2017-04-05T01:45:34.063Z,6.49
2017-04-05T01:46:14.278Z,6.48
2017-04-05T01:46:54.744Z,6.51
2017-04-05T01:47:35.220Z,6.51
2017-04-05T01:48:15.707Z,6.51
2017-04-05T01:48:56.182Z,6.56
2017-04-05T01:49:36.663Z,6.63
2017-04-05T01:50:17.136Z,6.66
2017-04-05T01:50:57.604Z,6.6
2017-04-05T01:51:38.101Z,6.81
2017-04-05T01:52:18.544Z,6.75
2017-04-05T01:52:59.030Z,6.79
2017-04-05T01:53:39.498Z,6.89
2017-04-05T01:54:19.988Z,6.92
2017-04-05T01:55:00.458Z,7.03
2017-04-05T01:55:40.965Z,6.99
2017-04-05T01:56:21.477Z,7.05
2017-04-05T01:57:01.936Z,7.13
2017-04-05T01:57:42.407Z,7.15
2017-04-05T01:58:22.857Z,7.11
2017-04-05T01:59:03.351Z,7.25
2017-04-05T01:59:43.841Z,7.25
2017-04-05T02:00:24.306Z,7.36
2017-04-05T02:01:04.794Z,7.36
2017-04-05T02:01:45.294Z,7.38
2017-04-05T02:02:25.799Z,7.47
2017-04-05T02:03:06.384Z,7.45
2017-04-05T02:03:46.876Z,7.48
2017-04-05T02:04:27.357Z,7.43
2017-04-05T02:05:07.823Z,7.43
2017-04-05T02:05:48.320Z,7.5
2017-04-05T02:06:28.801Z,7.5
2017-04-05T02:07:09.272Z,7.51
2017-04-05T02:07:49.748Z,7.51
2017-04-05T02:08:30.250Z,7.54
2017-04-05T02:09:10.700Z,7.47
2017-04-05T02:09:51.165Z,7.48
2017-04-05T02:10:31.668Z,7.48
2017-04-05T02:11:12.176Z,7.5
2017-04-05T02:11:52.631Z,7.42
2017-04-05T02:12:33.107Z,7.43
2017-04-05T02:13:13.582Z,7.43
2017-04-05T02:13:54.028Z,7.4
2017-04-05T02:14:34.531Z,7.33
2017-04-05T02:15:15.034Z,7.4
2017-04-05T02:15:55.490Z,7.36
2017-04-05T02:16:35.952Z,7.42
2017-04-05T02:17:16.450Z,7.32
2017-04-05T02:17:56.975Z,7.4
2017-04-05T02:18:37.461Z,7.42
2017-04-05T02:19:17.940Z,7.39
2017-04-05T02:19:58.432Z,7.25
2017-04-05T02:20:38.913Z,7.32
2017-04-05T02:21:19.390Z,7.35
2017-04-05T02:21:59.905Z,7.31
2017-04-05T02:22:40.380Z,7.31
2017-04-05T02:23:20.859Z,7.33
2017-04-05T02:24:01.375Z,7.28
2017-04-05T02:24:41.819Z,7.25
2017-04-05T02:25:22.328Z,7.25
2017-04-05T02:26:02.790Z,7.25
2017-04-05T02:26:43.288Z,7.24
2017-04-05T02:27:23.757Z,7.28
2017-04-05T02:28:04.264Z,7.28
2017-04-05T02:28:44.738Z,7.17
2017-04-05T02:29:25.194Z,7.25
2017-04-05T02:30:05.664Z,7.24
2017-04-05T02:30:46.195Z,7.17
2017-04-05T02:31:26.646Z,7.15
2017-04-05T02:32:07.145Z,7.24
2017-04-05T02:32:47.638Z,7.28
2017-04-05T02:33:28.113Z,7.24
2017-04-05T02:34:08.579Z,7.28
2017-04-05T02:34:49.086Z,7.25
2017-04-05T02:35:29.550Z,7.28
2017-04-05T02:36:10.018Z,7.28
2017-04-05T02:36:50.517Z,7.28
2017-04-05T02:37:30.984Z,7.28
2017-04-05T02:38:11.515Z,7.28
2017-04-05T02:38:51.996Z,7.4
2017-04-05T02:39:32.456Z,7.39
2017-04-05T02:40:12.945Z,7.38
2017-04-05T02:40:53.426Z,7.31
2017-04-05T02:41:33.911Z,7.38
2017-04-05T02:42:14.407Z,7.43
2017-04-05T02:42:54.878Z,7.4
2017-04-05T02:43:35.356Z,7.38
2017-04-05T02:44:15.853Z,7.43
2017-04-05T02:44:56.294Z,7.42
2017-04-05T02:45:36.798Z,7.42
2017-04-05T02:46:17.255Z,7.4
2017-04-05T02:48:09.644Z,7.48
2017-04-05T02:48:49.911Z,7.43
2017-04-05T02:49:30.386Z,7.47
2017-04-05T02:50:10.866Z,7.45
2017-04-05T02:50:51.377Z,7.53
2017-04-05T02:51:31.844Z,7.43
2017-04-05T02:52:13.210Z,7.48
2017-04-05T02:52:53.684Z,7.47
2017-04-05T02:53:34.184Z,7.61
2017-04-05T02:54:14.678Z,7.56
2017-04-05T02:54:55.166Z,7.63
2017-04-05T02:55:35.646Z,7.61
2017-04-05T02:56:16.118Z,7.66
2017-04-05T02:56:56.610Z,7.63
2017-04-05T02:57:37.077Z,7.67
2017-04-05T02:58:17.538Z,7.67
2017-04-05T02:58:58.009Z,7.66
2017-04-05T02:59:38.500Z,7.56
2017-04-05T03:00:18.950Z,7.63
2017-04-05T03:00:59.435Z,7.7
2017-04-05T03:01:39.888Z,7.72
2017-04-05T03:02:20.357Z,7.76
2017-04-05T03:03:00.835Z,7.77
2017-04-05T03:03:41.365Z,7.72
2017-04-05T03:04:21.873Z,7.69
2017-04-05T03:05:02.493Z,7.69
2017-04-05T03:05:42.979Z,7.79
2017-04-05T03:06:23.443Z,7.79
2017-04-05T03:07:03.916Z,7.79
2017-04-05T03:07:44.429Z,7.8
2017-04-05T03:08:24.899Z,7.82
2017-04-05T03:09:05.406Z,7.8
2017-04-05T03:09:45.909Z,7.87
2017-04-05T03:10:26.390Z,7.88
2017-04-05T03:11:06.873Z,7.88
2017-04-05T03:11:47.374Z,7.9
2017-04-05T03:12:27.884Z,7.94
2017-04-05T03:13:08.413Z,7.91
2017-04-05T03:13:48.933Z,7.93
2017-04-05T03:14:29.405Z,7.94
2017-04-05T03:15:09.900Z,7.98
2017-04-05T03:15:50.380Z,7.97
2017-04-05T03:16:30.851Z,7.98
2017-04-05T03:17:11.346Z,8
2017-04-05T03:17:51.823Z,8.03
2017-04-05T03:18:32.300Z,8.03
2017-04-05T03:19:12.777Z,8.05
2017-04-05T03:19:53.250Z,8.1
2017-04-05T03:20:33.741Z,8.1
2017-04-05T03:21:14.243Z,8.09
2017-04-05T03:21:54.714Z,8.06
2017-04-05T03:22:35.168Z,8.08
2017-04-05T03:23:15.654Z,8.13
2017-04-05T03:23:56.126Z,8.13
2017-04-05T03:24:36.629Z,8.13
2017-04-05T03:25:17.288Z,8.15
2017-04-05T03:25:57.773Z,8.18
2017-04-05T03:26:38.245Z,8.13
2017-04-05T03:27:18.740Z,8.2
2017-04-05T03:27:59.218Z,8.26
2017-04-05T03:28:39.704Z,8.23
2017-04-05T03:29:20.188Z,8.26
2017-04-05T03:30:00.652Z,8.26
2017-04-05T03:30:41.115Z,8.26
2017-04-05T03:31:21.607Z,8.23
2017-04-05T03:32:02.063Z,8.23
2017-04-05T03:32:42.536Z,8.26
2017-04-05T03:33:23.046Z,8.31
2017-04-05T03:34:03.510Z,8.26
2017-04-05T03:34:43.944Z,8.28
2017-04-05T03:35:24.424Z,8.27
2017-04-05T03:36:04.898Z,8.28
2017-04-05T03:36:45.395Z,8.34
2017-04-05T03:37:25.846Z,8.33
2017-04-05T03:38:06.528Z,8.3
2017-04-05T03:38:47.007Z,8.3
2017-04-05T03:39:27.485Z,8.3
2017-04-05T03:40:07.960Z,8.26
2017-04-05T03:40:48.431Z,8.26
2017-04-05T03:41:28.912Z,8.31
2017-04-05T03:42:09.449Z,8.3
2017-04-05T03:42:49.932Z,8.31
2017-04-05T03:43:30.390Z,8.3
2017-04-05T03:44:10.885Z,8.31
2017-04-05T03:44:51.365Z,8.27
2017-04-05T03:45:31.835Z,8.28
2017-04-05T03:46:12.384Z,8.33
2017-04-05T03:46:52.853Z,8.33
2017-04-05T03:47:33.374Z,8.33
2017-04-05T03:48:13.856Z,8.28
2017-04-05T03:48:54.345Z,8.26
2017-04-05T03:49:34.832Z,8.42
2017-04-05T03:50:15.331Z,8.31
2017-04-05T03:50:55.807Z,8.3
2017-04-05T03:51:36.277Z,8.3
2017-04-05T03:52:16.726Z,8.31
2017-04-05T03:52:57.219Z,8.33
2017-04-05T03:53:37.674Z,8.36
2017-04-05T03:54:18.149Z,8.3
2017-04-05T03:54:58.636Z,8.34
2017-04-05T03:55:39.096Z,8.27
2017-04-05T03:56:19.604Z,8.33
2017-04-05T03:57:00.121Z,8.36
2017-04-05T03:57:40.606Z,8.34
2017-04-05T03:58:21.289Z,8.34
2017-04-05T03:59:01.763Z,8.36
2017-04-05T03:59:42.234Z,8.34
2017-04-05T04:00:22.707Z,8.48
2017-04-05T04:01:03.173Z,8.42
2017-04-05T04:01:43.679Z,8.38
2017-04-05T04:02:24.124Z,8.44
2017-04-05T04:03:04.673Z,8.46
2017-04-05T04:03:45.151Z,8.49
2017-04-05T04:04:25.653Z,8.48
2017-04-05T04:05:06.126Z,8.41
2017-04-05T04:05:46.610Z,8.52
2017-04-05T04:06:27.051Z,8.42
2017-04-05T04:07:07.524Z,8.37
2017-04-05T04:07:48.002Z,8.51
2017-04-05T04:08:28.484Z,8.37
2017-04-05T04:09:08.979Z,8.41
2017-04-05T04:09:49.427Z,8.36
2017-04-05T04:10:29.942Z,8.42
2017-04-05T04:11:10.607Z,8.46
2017-04-05T04:11:51.045Z,8.42
2017-04-05T04:12:31.569Z,8.37
2017-04-05T04:13:12.043Z,8.36
2017-04-05T04:13:52.501Z,8.41
2017-04-05T04:14:32.975Z,8.37
2017-04-05T04:15:13.528Z,8.36
2017-04-05T04:15:53.994Z,8.28
2017-04-05T04:16:34.475Z,8.33
2017-04-05T04:17:14.952Z,8.33
2017-04-05T04:17:55.435Z,8.27
2017-04-05T04:18:35.927Z,8.27
2017-04-05T04:19:16.447Z,8.24
2017-04-05T04:19:56.939Z,8.26
2017-04-05T04:20:37.395Z,8.26
2017-04-05T04:21:17.921Z,8.18
2017-04-05T04:21:58.386Z,8.26
2017-04-05T04:22:38.855Z,8.2
2017-04-05T04:23:19.340Z,8.15
2017-04-05T04:23:59.807Z,8.16
2017-04-05T04:24:40.288Z,8.1
2017-04-05T04:25:20.764Z,8.05
2017-04-05T04:26:01.249Z,8.06
2017-04-05T04:26:41.734Z,8.03
2017-04-05T04:27:22.225Z,8.03
2017-04-05T04:28:02.770Z,8.03
2017-04-05T04:28:43.254Z,7.98
2017-04-05T04:29:23.736Z,8.03
2017-04-05T04:30:04.220Z,8.06
2017-04-05T04:30:44.704Z,7.97
2017-04-05T04:31:25.343Z,8.03
2017-04-05T04:32:05.817Z,7.95
2017-04-05T04:32:46.374Z,8.03
2017-04-05T04:33:26.808Z,7.97
2017-04-05T04:34:07.269Z,8
2017-04-05T04:34:47.740Z,8
2017-04-05T04:35:28.244Z,8.01
2017-04-05T04:36:08.727Z,7.95
2017-04-05T04:36:49.181Z,7.95
2017-04-05T04:37:29.639Z,7.98
2017-04-05T04:38:10.135Z,8.03
2017-04-05T04:38:50.615Z,7.98
2017-04-05T04:39:31.097Z,7.98
2017-04-05T04:40:11.549Z,7.95
2017-04-05T04:40:52.064Z,7.97
2017-04-05T04:41:32.507Z,7.98
2017-04-05T04:42:12.994Z,7.95
2017-04-05T04:42:53.452Z,7.98
2017-04-05T04:43:33.914Z,8.03
2017-04-05T04:44:14.580Z,8.01
2017-04-05T04:44:55.058Z,7.98
2017-04-05T04:45:35.555Z,7.95
2017-04-05T04:46:16.035Z,7.98
2017-04-05T04:46:56.491Z,8.01
2017-04-05T04:47:36.961Z,8.08
2017-04-05T04:48:17.517Z,7.97
2017-04-05T04:48:58.059Z,8.01
2017-04-05T04:49:38.504Z,7.95
2017-04-05T04:50:18.997Z,8.01
2017-04-05T04:50:59.475Z,8.06
2017-04-05T04:51:39.957Z,7.98
2017-04-05T04:52:20.447Z,7.98
2017-04-05T04:53:00.941Z,7.97
2017-04-05T04:53:41.412Z,7.95
2017-04-05T04:54:21.927Z,7.98
2017-04-05T04:55:02.410Z,7.97
2017-04-05T04:55:42.872Z,8.06
2017-04-05T04:56:23.355Z,8.06
2017-04-05T04:57:03.835Z,8.03
2017-04-05T04:57:44.320Z,8.06
2017-04-05T04:58:24.786Z,8.12
2017-04-05T04:59:05.309Z,8.12
2017-04-05T04:59:45.737Z,7.98
2017-04-05T05:00:26.229Z,8.09
2017-04-05T05:01:06.759Z,8.03
2017-04-05T05:01:47.261Z,8.06
2017-04-05T05:02:27.735Z,8.08
2017-04-05T05:03:08.234Z,8.05
2017-04-05T05:03:48.711Z,8.06
2017-04-05T05:04:29.378Z,8.03
2017-04-05T05:05:09.878Z,8.12
2017-04-05T05:05:50.396Z,7.97
2017-04-05T05:06:30.870Z,7.98
2017-04-05T05:07:11.333Z,8
2017-04-05T05:07:51.828Z,8.01
2017-04-05T05:08:32.309Z,7.98
2017-04-05T05:09:12.799Z,7.93
2017-04-05T05:09:53.297Z,7.9
2017-04-05T05:10:33.769Z,7.98
2017-04-05T05:11:14.251Z,7.9
2017-04-05T05:11:54.738Z,7.94
2017-04-05T05:12:35.197Z,7.91
2017-04-05T05:13:15.690Z,7.88
2017-04-05T05:13:56.151Z,7.85
2017-04-05T05:14:36.668Z,7.85
2017-04-05T05:15:17.132Z,7.79
2017-04-05T05:15:57.666Z,7.79
2017-04-05T05:16:38.146Z,7.77
2017-04-05T05:17:18.659Z,7.79
2017-04-05T05:17:59.148Z,7.77
2017-04-05T05:18:39.625Z,7.79
2017-04-05T05:19:20.108Z,7.79
2017-04-05T05:20:00.574Z,7.72
2017-04-05T05:20:41.042Z,7.73
2017-04-05T05:21:21.639Z,7.79
2017-04-05T05:22:02.156Z,7.69
2017-04-05T05:22:42.635Z,7.77
2017-04-05T05:23:23.129Z,7.72
2017-04-05T05:24:10.189Z,7.75
2017-04-05T05:24:50.674Z,7.7
2017-04-05T05:25:31.259Z,7.7
2017-04-05T05:26:11.738Z,7.7
2017-04-05T05:26:52.226Z,7.69
2017-04-05T05:27:33.601Z,7.7
2017-04-05T05:28:14.085Z,7.66
2017-04-05T05:28:54.605Z,7.67
2017-04-05T05:29:35.063Z,7.61
2017-04-05T05:30:15.582Z,7.67
2017-04-05T05:30:56.045Z,7.67
2017-04-05T05:31:36.542Z,7.69
2017-04-05T05:32:16.990Z,7.6
2017-04-05T05:32:57.469Z,7.61
2017-04-05T05:33:37.945Z,7.66
2017-04-05T05:34:18.435Z,7.7
2017-04-05T05:34:58.904Z,7.66
2017-04-05T05:35:39.364Z,7.69
2017-04-05T05:36:19.902Z,7.58
2017-04-05T05:37:00.361Z,7.69
2017-04-05T05:37:40.834Z,7.6
2017-04-05T05:38:21.285Z,7.61
2017-04-05T05:39:01.856Z,7.63
2017-04-05T05:39:42.363Z,7.66
2017-04-05T05:40:22.808Z,7.63
2017-04-05T05:41:03.270Z,7.66
2017-04-05T05:41:43.777Z,7.63
2017-04-05T05:42:24.245Z,7.7
2017-04-05T05:43:04.722Z,7.66
2017-04-05T05:43:45.441Z,7.66
2017-04-05T05:44:27.403Z,7.6
2017-04-05T05:45:11.452Z,7.57
2017-04-05T05:45:51.940Z,7.66
2017-04-05T05:46:35.029Z,7.66
2017-04-05T05:47:15.497Z,7.6
2017-04-05T05:47:55.969Z,7.57
2017-04-05T05:48:36.473Z,7.5
2017-04-05T05:49:16.996Z,7.48
2017-04-05T05:49:57.541Z,7.5
2017-04-05T05:50:38.031Z,7.47
2017-04-05T05:51:18.520Z,7.53
2017-04-05T05:51:59.012Z,7.53
2017-04-05T05:52:39.516Z,7.48
2017-04-05T05:53:19.970Z,7.47
2017-04-05T05:54:00.537Z,7.5
2017-04-05T05:54:40.989Z,7.47
2017-04-05T05:55:21.485Z,7.51
2017-04-05T05:56:01.995Z,7.48
2017-04-05T05:56:42.467Z,7.51
2017-04-05T05:57:22.941Z,7.47
2017-04-05T05:58:03.406Z,7.48
2017-04-05T05:58:43.878Z,7.42
2017-04-05T05:59:24.371Z,7.47
2017-04-05T06:00:04.836Z,7.5
2017-04-05T06:00:45.317Z,7.43
2017-04-05T06:01:25.819Z,7.42
2017-04-05T06:02:06.285Z,7.42
2017-04-05T06:02:50.800Z,7.48
2017-04-05T06:03:31.264Z,7.43
2017-04-05T06:04:11.815Z,7.5
2017-04-05T06:04:52.319Z,7.45
2017-04-05T06:05:32.789Z,7.56
2017-04-05T06:06:13.259Z,7.51
2017-04-05T06:06:54.756Z,7.5
2017-04-05T06:07:35.249Z,7.48
2017-04-05T06:08:15.735Z,7.5
2017-04-05T06:08:56.231Z,7.48
2017-04-05T06:09:36.704Z,7.5
2017-04-05T06:10:17.235Z,7.53
2017-04-05T06:10:57.715Z,7.5
2017-04-05T06:11:38.240Z,7.51
2017-04-05T06:12:18.692Z,7.53
2017-04-05T06:12:59.222Z,7.54
2017-04-05T06:13:39.712Z,7.53
2017-04-05T06:14:20.208Z,7.53
2017-04-05T06:15:00.702Z,7.43
2017-04-05T06:15:41.210Z,7.53
2017-04-05T06:16:21.777Z,7.54
2017-04-05T06:17:05.307Z,7.66
2017-04-05T06:17:45.757Z,7.63
2017-04-05T06:18:26.929Z,7.69
2017-04-05T06:19:07.438Z,7.7
2017-04-05T06:19:47.889Z,7.63
2017-04-05T06:20:28.466Z,7.66
2017-04-05T06:22:48.938Z,7.72
2017-04-05T06:23:37.862Z,7.73
2017-04-05T06:24:26.207Z,7.8
2017-04-05T06:25:14.872Z,7.75
2017-04-05T06:26:03.720Z,7.8
2017-04-05T06:26:52.448Z,7.82
2017-04-05T06:27:40.724Z,7.83
2017-04-05T06:28:29.294Z,7.8
2017-04-05T06:29:19.144Z,7.95
2017-04-05T06:30:04.334Z,7.9
2017-04-05T06:30:53.384Z,7.97
2017-04-05T06:31:41.830Z,7.94
2017-04-05T06:32:23.337Z,7.95
2017-04-05T06:33:03.779Z,7.94
2017-04-05T06:33:44.245Z,7.97
2017-04-05T06:34:24.689Z,7.97
2017-04-05T06:35:05.247Z,7.97
2017-04-05T06:35:45.752Z,8.01
2017-04-05T06:36:26.257Z,8.09
2017-04-05T06:37:06.904Z,8.13
2017-04-05T06:37:47.638Z,8.18
2017-04-05T06:38:28.126Z,8.26
2017-04-05T06:39:09.523Z,8.28
2017-04-05T06:39:50.048Z,8.33
2017-04-05T06:40:30.478Z,8.3
2017-04-05T06:41:11.030Z,8.3
2017-04-05T06:41:51.499Z,8.41
2017-04-05T06:42:32.027Z,8.41
2017-04-05T06:43:12.498Z,8.37
2017-04-05T06:43:53.039Z,8.42
2017-04-05T06:44:33.466Z,8.34
2017-04-05T06:45:13.964Z,8.48
2017-04-05T06:45:54.521Z,8.52
2017-04-05T06:46:34.954Z,8.53
2017-04-05T06:47:15.524Z,8.45
2017-04-05T06:47:55.975Z,8.46
2017-04-05T06:48:36.441Z,8.41
2017-04-05T06:49:16.902Z,8.44
2017-04-05T06:49:57.407Z,8.53
2017-04-05T06:50:37.922Z,8.51
2017-04-05T06:51:18.441Z,8.56
2017-04-05T06:51:58.914Z,8.55
2017-04-05T06:52:39.356Z,8.53
2017-04-05T06:53:19.859Z,8.58
2017-04-05T06:54:00.302Z,8.51
2017-04-05T06:54:40.886Z,8.61
2017-04-05T06:55:21.447Z,8.58
2017-04-05T06:56:01.956Z,8.61
2017-04-05T06:56:42.397Z,8.56
2017-04-05T06:57:22.906Z,8.7
2017-04-05T06:58:03.399Z,8.6
2017-04-05T06:58:43.867Z,8.71
2017-04-05T06:59:24.333Z,8.76
2017-04-05T07:00:04.817Z,8.78
2017-04-05T07:00:45.324Z,8.73
2017-04-05T07:01:25.775Z,8.69
2017-04-05T07:02:10.199Z,8.71
2017-04-05T07:03:00.775Z,8.74
2017-04-05T07:03:48.938Z,8.81
2017-04-05T07:04:38.740Z,8.7
2017-04-05T07:05:28.694Z,8.84
2017-04-05T07:06:24.694Z,8.74
2017-04-05T07:07:12.394Z,8.81
2017-04-05T07:07:57.886Z,8.82
2017-04-05T07:08:38.335Z,8.74
2017-04-05T07:09:18.865Z,8.78
2017-04-05T07:09:59.312Z,8.71
2017-04-05T07:10:39.799Z,8.71
2017-04-05T07:11:20.251Z,8.7
2017-04-05T07:12:00.771Z,8.76
2017-04-05T07:12:41.259Z,8.74
2017-04-05T07:13:21.835Z,8.79
2017-04-05T07:14:02.400Z,8.74
2017-04-05T07:14:42.888Z,8.7
2017-04-05T07:15:23.383Z,8.7
2017-04-05T07:16:03.871Z,8.64
2017-04-05T07:16:44.362Z,8.58
2017-04-05T07:17:27.573Z,8.66
2017-04-05T07:18:08.162Z,8.58
2017-04-05T07:18:48.653Z,8.64
2017-04-05T07:19:29.167Z,8.61
2017-04-05T07:20:09.693Z,8.66
2017-04-05T07:20:50.178Z,8.66
2017-04-05T07:21:30.688Z,8.69
2017-04-05T07:22:11.169Z,8.64
2017-04-05T07:22:51.660Z,8.64
2017-04-05T07:23:32.157Z,8.67
2017-04-05T07:24:12.636Z,8.66
2017-04-05T07:24:53.115Z,8.7
2017-04-05T07:25:33.604Z,8.71
2017-04-05T07:26:14.102Z,8.82
2017-04-05T07:26:54.601Z,8.81
2017-04-05T07:27:35.115Z,8.79
2017-04-05T07:28:15.622Z,8.81
2017-04-05T07:28:56.090Z,8.82
2017-04-05T07:29:36.631Z,8.84
2017-04-05T07:30:17.390Z,8.89
2017-04-05T07:30:58.043Z,8.88
2017-04-05T07:31:38.539Z,8.82
2017-04-05T07:32:19.032Z,8.94
2017-04-05T07:33:00.090Z,8.89
2017-04-05T07:33:42.310Z,8.79
2017-04-05T07:34:22.839Z,8.81
2017-04-05T07:35:03.367Z,8.87
2017-04-05T07:35:43.831Z,8.94
2017-04-05T07:36:24.365Z,8.95
2017-04-05T07:37:04.846Z,8.87
2017-04-05T07:37:45.327Z,8.82
2017-04-05T07:38:25.895Z,8.87
2017-04-05T07:39:06.289Z,8.94
2017-04-05T07:39:46.898Z,8.84
2017-04-05T07:40:27.390Z,8.79
2017-04-05T07:41:07.891Z,8.74
2017-04-05T07:41:48.389Z,8.76
2017-04-05T07:42:28.906Z,8.82
2017-04-05T07:43:09.371Z,8.71
2017-04-05T07:43:49.850Z,8.73
2017-04-05T07:44:31.857Z,8.7
2017-04-05T07:45:12.391Z,8.71
2017-04-05T07:45:52.897Z,8.82
2017-04-05T07:46:33.524Z,8.84
2017-04-05T07:47:13.996Z,8.82
2017-04-05T07:47:54.451Z,8.82
2017-04-05T07:48:34.959Z,8.81
2017-04-05T07:49:15.447Z,8.74
2017-04-05T07:49:55.951Z,8.89
2017-04-05T07:50:36.511Z,8.88
2017-04-05T07:51:17.902Z,8.87
2017-04-05T07:51:58.506Z,8.89
2017-04-05T07:52:39.031Z,8.84
2017-04-05T07:53:19.496Z,8.87
2017-04-05T07:54:00.106Z,9.03
2017-04-05T07:54:40.602Z,9.04
2017-04-05T07:55:21.137Z,9.02
2017-04-05T07:56:01.722Z,9.04
2017-04-05T07:56:42.219Z,8.99
2017-04-05T07:57:22.653Z,9.1
2017-04-05T07:58:03.725Z,9.02
2017-04-05T07:58:44.260Z,9.04
2017-04-05T07:59:24.766Z,9.04
2017-04-05T08:01:25.980Z,8.95
2017-04-05T08:02:15.319Z,9.02
2017-04-05T08:03:05.141Z,8.85
2017-04-05T08:04:05.013Z,8.99
2017-04-05T08:04:54.490Z,9.06
2017-04-05T08:05:46.439Z,9.11
2017-04-05T08:06:36.276Z,9.23
2017-04-05T08:07:25.730Z,9.25
2017-04-05T08:08:16.587Z,9.29
2017-04-05T08:09:04.194Z,9.31
2017-04-05T08:09:50.226Z,9.44
2017-04-05T08:10:39.674Z,9.46
2017-04-05T08:11:28.898Z,9.61
2017-04-05T08:12:12.563Z,9.64
2017-04-05T08:12:53.169Z,9.72
2017-04-05T08:13:33.650Z,9.74
2017-04-05T08:14:14.217Z,9.8
2017-04-05T08:14:55.313Z,9.87
2017-04-05T08:15:35.878Z,9.94
2017-04-05T08:16:16.323Z,9.91
2017-04-05T08:16:56.923Z,9.89
2017-04-05T08:17:41.501Z,9.95
2017-04-05T08:18:24.108Z,9.95
2017-04-05T08:19:05.350Z,10.05
2017-04-05T08:19:46.608Z,10.1
2017-04-05T08:20:27.946Z,10.1
2017-04-05T08:21:08.554Z,10.15
2017-04-05T08:21:49.796Z,10.25
2017-04-05T08:22:32.262Z,10.3
2017-04-05T08:23:12.738Z,10.13
2017-04-05T08:23:54.985Z,10.19
2017-04-05T08:24:35.542Z,10.07
2017-04-05T08:25:16.046Z,10.1
2017-04-05T08:25:56.666Z,10.15
2017-04-05T08:26:37.113Z,10.13
2017-04-05T08:27:17.629Z,10.1
2017-04-05T08:27:58.111Z,10.17
2017-04-05T08:28:38.659Z,10.13
2017-04-05T08:29:19.275Z,10.1
2017-04-05T08:29:59.740Z,10.1
2017-04-05T08:30:41.087Z,9.99
2017-04-05T08:31:22.431Z,9.98
2017-04-05T08:32:02.903Z,9.99
2017-04-05T08:32:43.807Z,10.12
2017-04-05T08:33:24.332Z,10.15
2017-04-05T08:34:04.887Z,10.15
2017-04-05T08:34:45.488Z,10.2
2017-04-05T08:35:25.923Z,10.16
2017-04-05T08:36:08.767Z,10.15
2017-04-05T08:36:52.140Z,10.23
2017-04-05T08:37:32.639Z,10.26
2017-04-05T08:38:13.081Z,10.28
2017-04-05T08:38:53.611Z,10.28
2017-04-05T08:39:34.138Z,10.33
2017-04-05T08:40:14.584Z,10.37
2017-04-05T08:40:55.107Z,10.38
2017-04-05T08:41:35.582Z,10.3
2017-04-05T08:42:16.055Z,10.33
2017-04-05T08:42:56.572Z,10.38
2017-04-05T08:43:37.226Z,10.4
2017-04-05T08:44:17.716Z,10.37
2017-04-05T08:44:58.351Z,10.34
2017-04-05T08:45:38.842Z,10.46
2017-04-05T08:46:19.308Z,10.51
2017-04-05T08:46:59.912Z,10.56
2017-04-05T08:47:40.329Z,10.59
2017-04-05T08:48:20.897Z,10.67
2017-04-05T08:49:01.698Z,10.64
2017-04-05T08:49:42.179Z,10.68
2017-04-05T08:50:22.988Z,10.75
2017-04-05T08:51:04.234Z,10.67
2017-04-05T08:51:44.722Z,10.64
2017-04-05T08:52:25.194Z,10.6
2017-04-05T08:53:05.666Z,10.67
2017-04-05T08:53:46.150Z,10.64
2017-04-05T08:54:29.872Z,10.64
2017-04-05T08:55:16.694Z,10.72
2017-04-05T08:55:57.736Z,10.63
2017-04-05T08:56:38.310Z,10.63
2017-04-05T08:57:19.134Z,10.63
2017-04-05T08:57:59.639Z,10.71
2017-04-05T08:58:40.135Z,10.71
2017-04-05T08:59:20.696Z,10.6
2017-04-05T09:00:02.138Z,10.51
2017-04-05T09:00:42.542Z,10.56
2017-04-05T09:01:23.059Z,10.44
2017-04-05T09:02:03.577Z,10.42
2017-04-05T09:02:44.128Z,10.48
2017-04-05T09:03:24.638Z,10.46
2017-04-05T09:04:05.089Z,10.56
2017-04-05T09:04:45.620Z,10.51
2017-04-05T09:05:26.173Z,10.57
2017-04-05T09:06:06.806Z,10.59
2017-04-05T09:06:47.404Z,10.6
2017-04-05T09:07:28.370Z,10.63
2017-04-05T09:08:08.988Z,10.67
2017-04-05T09:08:49.397Z,10.69
2017-04-05T09:09:29.871Z,10.63
2017-04-05T09:10:10.433Z,10.75
2017-04-05T09:10:50.845Z,10.6
2017-04-05T09:11:32.090Z,10.61
2017-04-05T09:12:12.594Z,10.61